Time,TemperatureF,DewpointF,PressureIn,WindDirection,WindDirectionDegrees,WindSpeedMPH,WindSpeedGustMPH,Humidity,HourlyPrecipIn,Conditions,Clouds,dailyrainin,SoftwareType,DateUTC
2013-03-08 00:01:00,65.0,-99.9,-100.00,NE,39,7.0,9.0,-999,0.00,,,-99.99,,2013-03-08 10:01:00,
2013-03-08 00:32:00,65.0,-99.9,-100.00,NE,52,6.0,9.0,-999,0.00,,,-99.99,,2013-03-08 10:32:00,
2013-03-08 00:42:00,65.0,-99.9,-100.00,NE,52,6.0,9.0,-999,0.00,,,-99.99,,2013-03-08 10:42:00,
2013-03-08 00:52:00,65.0,-99.9,-100.00,NE,52,6.0,9.0,-999,0.00,,,-99.99,,2013-03-08 10:52:00,
2013-03-08 01:01:00,65.0,-99.9,-100.00,NE,52,6.0,9.0,-999,0.00,,,-99.99,,2013-03-08 11:01:00,
2013-03-08 01:02:00,65.0,-99.9,-100.00,NE,48,5.0,8.0,-999,0.00,,,-99.99,,2013-03-08 11:02:00,
2013-03-08 01:32:00,65.0,-99.9,-100.00,NE,48,5.0,8.0,-999,0.00,,,-99.99,,2013-03-08 11:32:00,
2013-03-08 01:42:00,65.0,-99.9,-100.00,NE,48,5.0,8.0,-999,0.00,,,-99.99,,2013-03-08 11:42:00,
2013-03-08 01:53:00,65.0,-99.9,-100.00,NE,48,5.0,8.0,-999,0.00,,,-99.99,,2013-03-08 11:53:00,
2013-03-08 02:02:00,64.0,-99.9,-100.00,NNE,27,7.0,10.0,-999,0.00,,,-99.99,,2013-03-08 12:02:00,
2013-03-08 02:32:00,64.0,-99.9,-100.00,NNE,27,7.0,10.0,-999,0.00,,,-99.99,,2013-03-08 12:32:00,
2013-03-08 02:43:00,64.0,-99.9,-100.00,NNE,27,7.0,10.0,-999,0.00,,,-99.99,,2013-03-08 12:43:00,
2013-03-08 02:53:00,64.0,-99.9,-100.00,NNE,27,7.0,10.0,-999,0.00,,,-99.99,,2013-03-08 12:53:00,
2013-03-08 03:02:00,64.0,-99.9,-100.00,NNE,27,8.0,10.0,-999,0.00,,,-99.99,,2013-03-08 13:02:00,
2013-03-08 03:33:00,64.0,-99.9,-100.00,NNE,27,8.0,10.0,-999,0.00,,,-99.99,,2013-03-08 13:33:00,
2013-03-08 03:42:00,64.0,-99.9,-100.00,NNE,27,8.0,10.0,-999,0.00,,,-99.99,,2013-03-08 13:42:00,
2013-03-08 03:52:00,64.0,-99.9,-100.00,NNE,27,8.0,10.0,-999,0.00,,,-99.99,,2013-03-08 13:52:00,
2013-03-08 04:02:00,63.0,-99.9,-100.00,NNE,30,6.0,9.0,-999,0.00,,,-99.99,,2013-03-08 14:02:00,
2013-03-08 04:33:00,63.0,-99.9,-100.00,NNE,30,6.0,9.0,-999,0.00,,,-99.99,,2013-03-08 14:33:00,
2013-03-08 04:42:00,63.0,-99.9,-100.00,NNE,30,6.0,9.0,-999,0.00,,,-99.99,,2013-03-08 14:42:00,
2013-03-08 04:53:00,63.0,-99.9,-100.00,NNE,30,6.0,9.0,-999,0.00,,,-99.99,,2013-03-08 14:53:00,
2013-03-08 05:02:00,63.0,-99.9,-100.00,NNE,32,6.0,8.0,-999,0.00,,,-99.99,,2013-03-08 15:02:00,
2013-03-08 05:32:00,63.0,-99.9,-100.00,NNE,32,6.0,8.0,-999,0.00,,,-99.99,,2013-03-08 15:32:00,
2013-03-08 05:43:00,63.0,-99.9,-100.00,NNE,32,6.0,8.0,-999,0.00,,,-99.99,,2013-03-08 15:43:00,
2013-03-08 05:53:00,63.0,-99.9,-100.00,NNE,32,6.0,8.0,-999,0.00,,,-99.99,,2013-03-08 15:53:00,
2013-03-08 06:02:00,63.0,-99.9,-100.00,NNE,20,6.0,7.0,-999,0.00,,,-99.99,,2013-03-08 16:02:00,
2013-03-08 06:32:00,63.0,-99.9,-100.00,NNE,20,6.0,7.0,-999,0.00,,,-99.99,,2013-03-08 16:32:00,
2013-03-08 06:42:00,63.0,-99.9,-100.00,NNE,20,6.0,7.0,-999,0.00,,,-99.99,,2013-03-08 16:42:00,
2013-03-08 06:52:00,63.0,-99.9,-100.00,NNE,20,6.0,7.0,-999,0.00,,,-99.99,,2013-03-08 16:52:00,
2013-03-08 07:02:00,63.0,-99.9,-100.00,NNE,30,7.0,8.0,-999,0.00,,,-99.99,,2013-03-08 17:02:00,
2013-03-08 07:32:00,63.0,-99.9,-100.00,NNE,30,7.0,8.0,-999,0.00,,,-99.99,,2013-03-08 17:32:00,
2013-03-08 07:42:00,63.0,-99.9,-100.00,NNE,30,7.0,8.0,-999,0.00,,,-99.99,,2013-03-08 17:42:00,
2013-03-08 07:52:00,63.0,-99.9,-100.00,NNE,30,7.0,8.0,-999,0.00,,,-99.99,,2013-03-08 17:52:00,
2013-03-08 08:02:00,65.0,-99.9,-100.00,NNE,26,6.0,7.0,-999,0.00,,,-99.99,,2013-03-08 18:02:00,
2013-03-08 08:32:00,65.0,-99.9,-100.00,NNE,26,6.0,7.0,-999,0.00,,,-99.99,,2013-03-08 18:32:00,
2013-03-08 08:42:00,65.0,-99.9,-100.00,NNE,26,6.0,7.0,-999,0.00,,,-99.99,,2013-03-08 18:42:00,
2013-03-08 08:52:00,65.0,-99.9,-100.00,NNE,26,6.0,7.0,-999,0.00,,,-99.99,,2013-03-08 18:52:00,
2013-03-08 10:02:00,75.0,-99.9,-100.00,ESE,114,6.0,9.0,-999,0.00,,,-99.99,,2013-03-08 20:02:00,
2013-03-08 10:32:00,75.0,-99.9,-100.00,ESE,114,6.0,9.0,-999,0.00,,,-99.99,,2013-03-08 20:32:00,
2013-03-08 10:42:00,75.0,-99.9,-100.00,ESE,114,6.0,9.0,-999,0.00,,,-99.99,,2013-03-08 20:42:00,
2013-03-08 10:53:00,75.0,-99.9,-100.00,ESE,114,6.0,9.0,-999,0.00,,,-99.99,,2013-03-08 20:53:00,
2013-03-08 11:02:00,77.0,-99.9,-100.00,South,171,6.0,12.0,-999,0.00,,,-99.99,,2013-03-08 21:02:00,
2013-03-08 11:33:00,77.0,-99.9,-100.00,South,171,6.0,12.0,-999,0.00,,,-99.99,,2013-03-08 21:33:00,
2013-03-08 11:42:00,77.0,-99.9,-100.00,South,171,6.0,12.0,-999,0.00,,,-99.99,,2013-03-08 21:42:00,
2013-03-08 11:52:00,77.0,-99.9,-100.00,South,171,6.0,12.0,-999,0.00,,,-99.99,,2013-03-08 21:52:00,
2013-03-08 12:02:00,78.0,-99.9,-100.00,SSW,198,8.0,12.0,-999,0.00,,,-99.99,,2013-03-08 22:02:00,
2013-03-08 12:32:00,78.0,-99.9,-100.00,SSW,198,8.0,12.0,-999,0.00,,,-99.99,,2013-03-08 22:32:00,
2013-03-08 12:42:00,78.0,-99.9,-100.00,SSW,198,8.0,12.0,-999,0.00,,,-99.99,,2013-03-08 22:42:00,
2013-03-08 12:53:00,78.0,-99.9,-100.00,SSW,198,8.0,12.0,-999,0.00,,,-99.99,,2013-03-08 22:53:00,
2013-03-08 13:02:00,79.0,-99.9,-100.00,SSW,209,10.0,14.0,-999,0.00,,,-99.99,,2013-03-08 23:02:00,
2013-03-08 13:32:00,79.0,-99.9,-100.00,SSW,209,10.0,14.0,-999,0.00,,,-99.99,,2013-03-08 23:32:00,
2013-03-08 13:42:00,79.0,-99.9,-100.00,SSW,209,10.0,14.0,-999,0.00,,,-99.99,,2013-03-08 23:42:00,
2013-03-08 13:53:00,79.0,-99.9,-100.00,SSW,209,10.0,14.0,-999,0.00,,,-99.99,,2013-03-08 23:53:00,
2013-03-08 14:02:00,79.0,-99.9,-100.00,SSW,195,10.0,14.0,-999,0.00,,,-99.99,,2013-03-09 00:02:00,
2013-03-08 14:32:00,79.0,-99.9,-100.00,SSW,195,10.0,14.0,-999,0.00,,,-99.99,,2013-03-09 00:32:00,
2013-03-08 14:43:00,79.0,-99.9,-100.00,SSW,195,10.0,14.0,-999,0.00,,,-99.99,,2013-03-09 00:43:00,
2013-03-08 14:52:00,79.0,-99.9,-100.00,SSW,195,10.0,14.0,-999,0.00,,,-99.99,,2013-03-09 00:52:00,
2013-03-08 17:32:00,77.0,-99.9,-100.00,SSW,203,10.0,15.0,-999,0.00,,,-99.99,,2013-03-09 03:32:00,
2013-03-08 17:42:00,77.0,-99.9,-100.00,SSW,203,10.0,15.0,-999,0.00,,,-99.99,,2013-03-09 03:42:00,
2013-03-08 17:52:00,77.0,-99.9,-100.00,SSW,203,10.0,15.0,-999,0.00,,,-99.99,,2013-03-09 03:52:00,
2013-03-08 18:01:00,77.0,-99.9,-100.00,SSW,203,10.0,15.0,-999,0.00,,,-99.99,,2013-03-09 04:01:00,
2013-03-08 18:02:00,75.0,-99.9,-100.00,SSW,196,10.0,17.0,-999,0.00,,,-99.99,,2013-03-09 04:02:00,
2013-03-08 18:32:00,75.0,-99.9,-100.00,SSW,196,10.0,17.0,-999,0.00,,,-99.99,,2013-03-09 04:32:00,
2013-03-08 18:42:00,75.0,-99.9,-100.00,SSW,196,10.0,17.0,-999,0.00,,,-99.99,,2013-03-09 04:42:00,
2013-03-08 18:52:00,75.0,-99.9,-100.00,SSW,196,10.0,17.0,-999,0.00,,,-99.99,,2013-03-09 04:52:00,
2013-03-08 19:02:00,75.0,-99.9,-100.00,SSW,205,9.0,13.0,-999,0.00,,,-99.99,,2013-03-09 05:02:00,
2013-03-08 19:32:00,75.0,-99.9,-100.00,SSW,205,9.0,13.0,-999,0.00,,,-99.99,,2013-03-09 05:32:00,
2013-03-08 19:43:00,75.0,-99.9,-100.00,SSW,205,9.0,13.0,-999,0.00,,,-99.99,,2013-03-09 05:43:00,
2013-03-08 19:53:00,75.0,-99.9,-100.00,SSW,205,9.0,13.0,-999,0.00,,,-99.99,,2013-03-09 05:53:00,
2013-03-08 20:32:00,74.0,-99.9,-100.00,SSW,200,8.0,12.0,-999,0.00,,,-99.99,,2013-03-09 06:32:00,
2013-03-08 20:42:00,74.0,-99.9,-100.00,SSW,200,8.0,12.0,-999,0.00,,,-99.99,,2013-03-09 06:42:00,
2013-03-08 20:52:00,74.0,-99.9,-100.00,SSW,200,8.0,12.0,-999,0.00,,,-99.99,,2013-03-09 06:52:00,
2013-03-08 21:01:00,74.0,-99.9,-100.00,SSW,200,8.0,12.0,-999,0.00,,,-99.99,,2013-03-09 07:01:00,
2013-03-08 21:32:00,74.0,-99.9,-100.00,South,188,9.0,14.0,-999,0.00,,,-99.99,,2013-03-09 07:32:00,
2013-03-08 21:42:00,74.0,-99.9,-100.00,South,188,9.0,14.0,-999,0.00,,,-99.99,,2013-03-09 07:42:00,
2013-03-08 21:52:00,74.0,-99.9,-100.00,South,188,9.0,14.0,-999,0.00,,,-99.99,,2013-03-09 07:52:00,
2013-03-08 22:01:00,74.0,-99.9,-100.00,South,188,9.0,14.0,-999,0.00,,,-99.99,,2013-03-09 08:01:00,
2013-03-08 22:02:00,73.0,-99.9,-100.00,SSW,206,13.0,18.0,-999,0.07,,,-99.99,,2013-03-09 08:02:00,
2013-03-08 22:32:00,73.0,-99.9,-100.00,SSW,206,13.0,18.0,-999,0.07,,,-99.99,,2013-03-09 08:32:00,
2013-03-08 22:42:00,73.0,-99.9,-100.00,SSW,206,13.0,18.0,-999,0.07,,,-99.99,,2013-03-09 08:42:00,
2013-03-08 22:52:00,73.0,-99.9,-100.00,SSW,206,13.0,18.0,-999,0.07,,,-99.99,,2013-03-09 08:52:00,
2013-03-08 23:32:00,72.0,-99.9,-100.00,SW,225,14.0,22.0,-999,0.01,,,-99.99,,2013-03-09 09:32:00,
2013-03-08 23:42:00,72.0,-99.9,-100.00,SW,225,14.0,22.0,-999,0.01,,,-99.99,,2013-03-09 09:42:00,
2013-03-08 23:52:00,72.0,-99.9,-100.00,SW,225,14.0,22.0,-999,0.01,,,-99.99,,2013-03-09 09:52:00,